sensor_id;sensor_type;location;lat;lon;timestamp;P1;durP1;ratioP1;P2;durP2;ratioP2
55031;SDS011;40928;51.076;7.950;2024-01-06T00:01:42;4.30;;;3.35;;
55031;SDS011;40928;51.076;7.950;2024-01-06T00:04:08;4.90;;;4.07;;
55031;SDS011;40928;51.076;7.950;2024-01-06T00:06:34;10.35;;;3.97;;
55031;SDS011;40928;51.076;7.950;2024-01-06T00:08:59;6.78;;;4.00;;
55031;SDS011;40928;51.076;7.950;2024-01-06T00:11:25;4.72;;;3.15;;
55031;SDS011;40928;51.076;7.950;2024-01-06T00:13:51;4.28;;;3.42;;
55031;SDS011;40928;51.076;7.950;2024-01-06T00:16:17;8.27;;;3.45;;
55031;SDS011;40928;51.076;7.950;2024-01-06T00:18:44;5.30;;;2.65;;
55031;SDS011;40928;51.076;7.950;2024-01-06T00:21:10;5.10;;;3.33;;
55031;SDS011;40928;51.076;7.950;2024-01-06T00:23:36;4.70;;;2.88;;
55031;SDS011;40928;51.076;7.950;2024-01-06T00:26:03;3.28;;;2.70;;
55031;SDS011;40928;51.076;7.950;2024-01-06T00:28:29;3.97;;;2.70;;
55031;SDS011;40928;51.076;7.950;2024-01-06T00:30:55;3.97;;;2.88;;
55031;SDS011;40928;51.076;7.950;2024-01-06T00:33:21;3.42;;;2.10;;
55031;SDS011;40928;51.076;7.950;2024-01-06T00:35:46;5.82;;;2.33;;
55031;SDS011;40928;51.076;7.950;2024-01-06T00:38:12;3.50;;;2.40;;
55031;SDS011;40928;51.076;7.950;2024-01-06T00:40:38;3.30;;;2.20;;
55031;SDS011;40928;51.076;7.950;2024-01-06T00:43:04;5.55;;;2.67;;
55031;SDS011;40928;51.076;7.950;2024-01-06T00:45:29;5.35;;;2.78;;
55031;SDS011;40928;51.076;7.950;2024-01-06T00:47:56;4.25;;;2.80;;
55031;SDS011;40928;51.076;7.950;2024-01-06T00:50:22;4.18;;;2.85;;
55031;SDS011;40928;51.076;7.950;2024-01-06T00:52:48;6.57;;;3.17;;
55031;SDS011;40928;51.076;7.950;2024-01-06T00:55:18;3.50;;;2.53;;
55031;SDS011;40928;51.076;7.950;2024-01-06T00:57:44;4.63;;;2.60;;
55031;SDS011;40928;51.076;7.950;2024-01-06T01:00:11;2.42;;;2.00;;
55031;SDS011;40928;51.076;7.950;2024-01-06T01:02:38;2.90;;;2.33;;
55031;SDS011;40928;51.076;7.950;2024-01-06T01:05:04;4.72;;;2.03;;
55031;SDS011;40928;51.076;7.950;2024-01-06T01:07:30;5.43;;;2.22;;
55031;SDS011;40928;51.076;7.950;2024-01-06T01:09:56;2.40;;;1.83;;
55031;SDS011;40928;51.076;7.950;2024-01-06T01:12:23;3.08;;;1.98;;
55031;SDS011;40928;51.076;7.950;2024-01-06T01:14:49;3.22;;;1.95;;
55031;SDS011;40928;51.076;7.950;2024-01-06T01:17:19;2.00;;;1.52;;
55031;SDS011;40928;51.076;7.950;2024-01-06T01:19:45;3.25;;;2.17;;
55031;SDS011;40928;51.076;7.950;2024-01-06T01:22:11;3.67;;;2.28;;
55031;SDS011;40928;51.076;7.950;2024-01-06T01:24:36;2.97;;;2.17;;
55031;SDS011;40928;51.076;7.950;2024-01-06T01:27:02;2.55;;;2.20;;
55031;SDS011;40928;51.076;7.950;2024-01-06T01:29:28;2.53;;;2.13;;
55031;SDS011;40928;51.076;7.950;2024-01-06T01:31:53;5.43;;;2.67;;
55031;SDS011;40928;51.076;7.950;2024-01-06T01:34:19;6.32;;;2.30;;
55031;SDS011;40928;51.076;7.950;2024-01-06T01:36:45;5.30;;;2.47;;
55031;SDS011;40928;51.076;7.950;2024-01-06T01:39:10;3.22;;;2.63;;
55031;SDS011;40928;51.076;7.950;2024-01-06T01:41:36;2.75;;;1.60;;
55031;SDS011;40928;51.076;7.950;2024-01-06T01:44:02;2.70;;;1.90;;
55031;SDS011;40928;51.076;7.950;2024-01-06T01:46:28;2.53;;;1.98;;
55031;SDS011;40928;51.076;7.950;2024-01-06T01:48:55;4.20;;;1.90;;
55031;SDS011;40928;51.076;7.950;2024-01-06T01:51:22;5.03;;;2.00;;
55031;SDS011;40928;51.076;7.950;2024-01-06T01:53:49;6.15;;;1.92;;
55031;SDS011;40928;51.076;7.950;2024-01-06T01:56:16;1.80;;;1.48;;
55031;SDS011;40928;51.076;7.950;2024-01-06T01:58:42;3.67;;;2.58;;
55031;SDS011;40928;51.076;7.950;2024-01-06T02:01:08;2.95;;;2.13;;
55031;SDS011;40928;51.076;7.950;2024-01-06T02:03:34;2.97;;;1.83;;
55031;SDS011;40928;51.076;7.950;2024-01-06T02:06:00;5.50;;;2.50;;
55031;SDS011;40928;51.076;7.950;2024-01-06T02:08:26;3.15;;;2.13;;
55031;SDS011;40928;51.076;7.950;2024-01-06T02:10:55;2.17;;;1.88;;
55031;SDS011;40928;51.076;7.950;2024-01-06T02:13:22;4.47;;;2.13;;
55031;SDS011;40928;51.076;7.950;2024-01-06T02:15:48;3.17;;;2.00;;
55031;SDS011;40928;51.076;7.950;2024-01-06T02:18:14;3.00;;;2.42;;
55031;SDS011;40928;51.076;7.950;2024-01-06T02:20:41;3.50;;;2.28;;
55031;SDS011;40928;51.076;7.950;2024-01-06T02:23:09;4.05;;;2.40;;
55031;SDS011;40928;51.076;7.950;2024-01-06T02:25:34;5.55;;;2.97;;
55031;SDS011;40928;51.076;7.950;2024-01-06T02:28:00;4.80;;;2.65;;
55031;SDS011;40928;51.076;7.950;2024-01-06T02:30:26;5.40;;;2.45;;
55031;SDS011;40928;51.076;7.950;2024-01-06T02:32:52;4.85;;;2.33;;
55031;SDS011;40928;51.076;7.950;2024-01-06T02:35:34;3.65;;;2.50;;
55031;SDS011;40928;51.076;7.950;2024-01-06T02:38:00;5.43;;;2.50;;
55031;SDS011;40928;51.076;7.950;2024-01-06T02:40:26;7.00;;;3.00;;
55031;SDS011;40928;51.076;7.950;2024-01-06T02:42:52;3.20;;;2.30;;
55031;SDS011;40928;51.076;7.950;2024-01-06T02:45:17;4.57;;;2.50;;
55031;SDS011;40928;51.076;7.950;2024-01-06T02:47:44;4.57;;;2.35;;
55031;SDS011;40928;51.076;7.950;2024-01-06T02:50:10;7.30;;;3.00;;
55031;SDS011;40928;51.076;7.950;2024-01-06T02:52:36;4.55;;;2.78;;
55031;SDS011;40928;51.076;7.950;2024-01-06T02:55:01;3.25;;;2.05;;
55031;SDS011;40928;51.076;7.950;2024-01-06T02:57:28;3.80;;;2.20;;
55031;SDS011;40928;51.076;7.950;2024-01-06T02:59:55;4.78;;;2.20;;
55031;SDS011;40928;51.076;7.950;2024-01-06T03:02:20;3.97;;;2.33;;
55031;SDS011;40928;51.076;7.950;2024-01-06T03:04:46;4.25;;;2.08;;
55031;SDS011;40928;51.076;7.950;2024-01-06T03:07:12;3.60;;;2.13;;
55031;SDS011;40928;51.076;7.950;2024-01-06T03:09:37;4.45;;;2.40;;
55031;SDS011;40928;51.076;7.950;2024-01-06T03:12:06;2.45;;;1.83;;
55031;SDS011;40928;51.076;7.950;2024-01-06T03:14:34;3.90;;;2.55;;
55031;SDS011;40928;51.076;7.950;2024-01-06T03:17:00;3.88;;;2.80;;
55031;SDS011;40928;51.076;7.950;2024-01-06T03:19:26;5.18;;;2.95;;
55031;SDS011;40928;51.076;7.950;2024-01-06T03:21:53;4.15;;;2.65;;
55031;SDS011;40928;51.076;7.950;2024-01-06T03:24:19;6.65;;;3.10;;
55031;SDS011;40928;51.076;7.950;2024-01-06T03:26:46;7.68;;;3.45;;
55031;SDS011;40928;51.076;7.950;2024-01-06T03:29:12;4.25;;;2.55;;
55031;SDS011;40928;51.076;7.950;2024-01-06T03:31:37;5.40;;;2.72;;
55031;SDS011;40928;51.076;7.950;2024-01-06T03:34:08;2.85;;;2.47;;
55031;SDS011;40928;51.076;7.950;2024-01-06T03:36:34;4.30;;;2.38;;
55031;SDS011;40928;51.076;7.950;2024-01-06T03:38:59;4.70;;;2.30;;
55031;SDS011;40928;51.076;7.950;2024-01-06T03:41:25;6.18;;;2.85;;
55031;SDS011;40928;51.076;7.950;2024-01-06T03:43:54;3.50;;;2.00;;
55031;SDS011;40928;51.076;7.950;2024-01-06T03:46:20;4.05;;;2.28;;
55031;SDS011;40928;51.076;7.950;2024-01-06T03:48:45;10.57;;;2.50;;
55031;SDS011;40928;51.076;7.950;2024-01-06T03:51:12;4.43;;;2.17;;
55031;SDS011;40928;51.076;7.950;2024-01-06T03:53:37;2.50;;;2.13;;
55031;SDS011;40928;51.076;7.950;2024-01-06T03:56:04;3.70;;;2.47;;
55031;SDS011;40928;51.076;7.950;2024-01-06T03:58:30;3.30;;;2.35;;
55031;SDS011;40928;51.076;7.950;2024-01-06T04:00:56;3.35;;;2.45;;
55031;SDS011;40928;51.076;7.950;2024-01-06T04:03:22;2.47;;;1.70;;
55031;SDS011;40928;51.076;7.950;2024-01-06T04:05:48;3.50;;;2.08;;
55031;SDS011;40928;51.076;7.950;2024-01-06T04:08:14;4.70;;;2.50;;
55031;SDS011;40928;51.076;7.950;2024-01-06T04:10:39;2.50;;;1.98;;
55031;SDS011;40928;51.076;7.950;2024-01-06T04:13:07;2.15;;;1.73;;
55031;SDS011;40928;51.076;7.950;2024-01-06T04:15:33;3.55;;;2.58;;
55031;SDS011;40928;51.076;7.950;2024-01-06T04:18:01;3.65;;;2.60;;
55031;SDS011;40928;51.076;7.950;2024-01-06T04:20:29;4.43;;;2.38;;
55031;SDS011;40928;51.076;7.950;2024-01-06T04:22:54;3.78;;;2.25;;
55031;SDS011;40928;51.076;7.950;2024-01-06T04:25:20;3.28;;;2.40;;
55031;SDS011;40928;51.076;7.950;2024-01-06T04:27:46;3.92;;;2.35;;
55031;SDS011;40928;51.076;7.950;2024-01-06T04:30:14;3.80;;;2.45;;
55031;SDS011;40928;51.076;7.950;2024-01-06T04:32:40;3.35;;;2.80;;
55031;SDS011;40928;51.076;7.950;2024-01-06T04:35:06;4.78;;;2.88;;
55031;SDS011;40928;51.076;7.950;2024-01-06T04:37:32;3.03;;;2.60;;
55031;SDS011;40928;51.076;7.950;2024-01-06T04:39:58;5.03;;;3.15;;
55031;SDS011;40928;51.076;7.950;2024-01-06T04:42:24;6.68;;;2.97;;
55031;SDS011;40928;51.076;7.950;2024-01-06T04:44:50;4.18;;;2.80;;
55031;SDS011;40928;51.076;7.950;2024-01-06T04:47:16;3.60;;;2.72;;
55031;SDS011;40928;51.076;7.950;2024-01-06T04:49:41;4.40;;;2.85;;
55031;SDS011;40928;51.076;7.950;2024-01-06T04:52:07;4.07;;;2.70;;
55031;SDS011;40928;51.076;7.950;2024-01-06T04:54:33;5.38;;;3.30;;
55031;SDS011;40928;51.076;7.950;2024-01-06T04:56:59;5.05;;;3.50;;
55031;SDS011;40928;51.076;7.950;2024-01-06T04:59:24;5.82;;;3.42;;
55031;SDS011;40928;51.076;7.950;2024-01-06T05:01:50;6.55;;;4.38;;
55031;SDS011;40928;51.076;7.950;2024-01-06T05:04:17;5.03;;;3.55;;
55031;SDS011;40928;51.076;7.950;2024-01-06T05:06:43;5.13;;;3.38;;
55031;SDS011;40928;51.076;7.950;2024-01-06T05:09:09;3.97;;;3.13;;
55031;SDS011;40928;51.076;7.950;2024-01-06T05:11:35;5.22;;;3.22;;
55031;SDS011;40928;51.076;7.950;2024-01-06T05:14:00;8.23;;;4.40;;
55031;SDS011;40928;51.076;7.950;2024-01-06T05:16:26;5.75;;;4.03;;
55031;SDS011;40928;51.076;7.950;2024-01-06T05:18:53;6.63;;;3.95;;
55031;SDS011;40928;51.076;7.950;2024-01-06T05:21:19;7.35;;;3.95;;
55031;SDS011;40928;51.076;7.950;2024-01-06T05:23:45;5.72;;;3.78;;
55031;SDS011;40928;51.076;7.950;2024-01-06T05:26:11;6.22;;;3.88;;
55031;SDS011;40928;51.076;7.950;2024-01-06T05:28:38;4.68;;;3.00;;
55031;SDS011;40928;51.076;7.950;2024-01-06T05:31:03;5.53;;;3.10;;
55031;SDS011;40928;51.076;7.950;2024-01-06T05:33:29;5.35;;;2.92;;
55031;SDS011;40928;51.076;7.950;2024-01-06T05:35:55;3.53;;;2.45;;
55031;SDS011;40928;51.076;7.950;2024-01-06T05:38:21;2.83;;;1.90;;
55031;SDS011;40928;51.076;7.950;2024-01-06T05:40:46;5.28;;;3.08;;
55031;SDS011;40928;51.076;7.950;2024-01-06T05:43:12;5.63;;;2.60;;
55031;SDS011;40928;51.076;7.950;2024-01-06T05:45:38;3.13;;;2.10;;
55031;SDS011;40928;51.076;7.950;2024-01-06T05:48:10;4.05;;;2.65;;
55031;SDS011;40928;51.076;7.950;2024-01-06T05:50:37;3.83;;;2.40;;
55031;SDS011;40928;51.076;7.950;2024-01-06T05:53:04;3.97;;;2.28;;
55031;SDS011;40928;51.076;7.950;2024-01-06T05:55:30;4.13;;;2.53;;
55031;SDS011;40928;51.076;7.950;2024-01-06T05:57:55;4.47;;;3.00;;
55031;SDS011;40928;51.076;7.950;2024-01-06T06:00:21;4.80;;;3.05;;
55031;SDS011;40928;51.076;7.950;2024-01-06T06:02:47;4.20;;;1.98;;
55031;SDS011;40928;51.076;7.950;2024-01-06T06:05:13;5.82;;;3.15;;
55031;SDS011;40928;51.076;7.950;2024-01-06T06:07:39;5.35;;;3.15;;
55031;SDS011;40928;51.076;7.950;2024-01-06T06:10:08;3.80;;;2.72;;
55031;SDS011;40928;51.076;7.950;2024-01-06T06:12:35;4.57;;;2.42;;
55031;SDS011;40928;51.076;7.950;2024-01-06T06:15:02;4.72;;;2.45;;
55031;SDS011;40928;51.076;7.950;2024-01-06T06:17:29;5.70;;;3.22;;
55031;SDS011;40928;51.076;7.950;2024-01-06T06:19:56;5.80;;;3.08;;
55031;SDS011;40928;51.076;7.950;2024-01-06T06:22:22;6.03;;;3.35;;
55031;SDS011;40928;51.076;7.950;2024-01-06T06:24:48;7.10;;;3.15;;
55031;SDS011;40928;51.076;7.950;2024-01-06T06:27:14;4.65;;;2.67;;
55031;SDS011;40928;51.076;7.950;2024-01-06T06:29:40;4.72;;;2.80;;
55031;SDS011;40928;51.076;7.950;2024-01-06T06:32:05;5.72;;;3.58;;
55031;SDS011;40928;51.076;7.950;2024-01-06T06:34:31;5.30;;;3.22;;
55031;SDS011;40928;51.076;7.950;2024-01-06T06:36:57;6.28;;;3.88;;
55031;SDS011;40928;51.076;7.950;2024-01-06T06:39:23;7.47;;;3.40;;
55031;SDS011;40928;51.076;7.950;2024-01-06T06:41:49;7.70;;;3.85;;
55031;SDS011;40928;51.076;7.950;2024-01-06T06:44:15;5.90;;;3.40;;
55031;SDS011;40928;51.076;7.950;2024-01-06T06:46:40;5.43;;;2.70;;
55031;SDS011;40928;51.076;7.950;2024-01-06T06:49:06;3.83;;;2.40;;
55031;SDS011;40928;51.076;7.950;2024-01-06T06:51:32;2.22;;;1.45;;
55031;SDS011;40928;51.076;7.950;2024-01-06T06:53:57;2.90;;;1.35;;
55031;SDS011;40928;51.076;7.950;2024-01-06T06:56:23;2.80;;;1.70;;
55031;SDS011;40928;51.076;7.950;2024-01-06T06:58:49;3.78;;;1.60;;
55031;SDS011;40928;51.076;7.950;2024-01-06T07:01:15;1.50;;;0.90;;
55031;SDS011;40928;51.076;7.950;2024-01-06T07:03:41;2.63;;;1.55;;
55031;SDS011;40928;51.076;7.950;2024-01-06T07:06:07;3.05;;;1.67;;
55031;SDS011;40928;51.076;7.950;2024-01-06T07:08:32;3.78;;;2.03;;
55031;SDS011;40928;51.076;7.950;2024-01-06T07:10:58;5.63;;;2.08;;
55031;SDS011;40928;51.076;7.950;2024-01-06T07:13:24;2.63;;;1.50;;
55031;SDS011;40928;51.076;7.950;2024-01-06T07:15:49;1.90;;;1.35;;
55031;SDS011;40928;51.076;7.950;2024-01-06T07:18:15;2.92;;;1.75;;
55031;SDS011;40928;51.076;7.950;2024-01-06T07:20:41;2.75;;;1.63;;
55031;SDS011;40928;51.076;7.950;2024-01-06T07:23:07;2.47;;;1.30;;
55031;SDS011;40928;51.076;7.950;2024-01-06T07:25:32;3.47;;;1.90;;
55031;SDS011;40928;51.076;7.950;2024-01-06T07:27:58;2.33;;;1.35;;
55031;SDS011;40928;51.076;7.950;2024-01-06T07:30:24;3.40;;;1.98;;
55031;SDS011;40928;51.076;7.950;2024-01-06T07:32:50;2.72;;;1.70;;
55031;SDS011;40928;51.076;7.950;2024-01-06T07:35:17;2.85;;;1.73;;
55031;SDS011;40928;51.076;7.950;2024-01-06T07:37:43;4.72;;;2.65;;
55031;SDS011;40928;51.076;7.950;2024-01-06T07:40:09;5.25;;;2.33;;
55031;SDS011;40928;51.076;7.950;2024-01-06T07:42:40;5.78;;;3.28;;
55031;SDS011;40928;51.076;7.950;2024-01-06T07:45:06;4.90;;;2.90;;
55031;SDS011;40928;51.076;7.950;2024-01-06T07:47:33;7.20;;;3.17;;
55031;SDS011;40928;51.076;7.950;2024-01-06T07:49:58;4.70;;;2.60;;
55031;SDS011;40928;51.076;7.950;2024-01-06T07:52:24;4.28;;;2.42;;
55031;SDS011;40928;51.076;7.950;2024-01-06T07:54:50;7.63;;;2.88;;
55031;SDS011;40928;51.076;7.950;2024-01-06T07:57:16;5.15;;;2.80;;
55031;SDS011;40928;51.076;7.950;2024-01-06T07:59:41;4.75;;;2.30;;
55031;SDS011;40928;51.076;7.950;2024-01-06T08:02:07;5.82;;;3.17;;
55031;SDS011;40928;51.076;7.950;2024-01-06T08:04:34;6.38;;;2.50;;
55031;SDS011;40928;51.076;7.950;2024-01-06T08:06:59;4.18;;;2.70;;
55031;SDS011;40928;51.076;7.950;2024-01-06T08:09:25;5.00;;;3.00;;
55031;SDS011;40928;51.076;7.950;2024-01-06T08:11:51;5.75;;;2.58;;
55031;SDS011;40928;51.076;7.950;2024-01-06T08:14:16;4.30;;;2.47;;
55031;SDS011;40928;51.076;7.950;2024-01-06T08:16:43;7.63;;;3.10;;
55031;SDS011;40928;51.076;7.950;2024-01-06T08:19:09;5.05;;;2.88;;
55031;SDS011;40928;51.076;7.950;2024-01-06T08:21:35;6.07;;;3.00;;
55031;SDS011;40928;51.076;7.950;2024-01-06T08:24:00;3.88;;;1.83;;
55031;SDS011;40928;51.076;7.950;2024-01-06T08:26:27;5.32;;;2.95;;
55031;SDS011;40928;51.076;7.950;2024-01-06T08:28:53;5.57;;;2.65;;
55031;SDS011;40928;51.076;7.950;2024-01-06T08:31:18;5.32;;;2.65;;
55031;SDS011;40928;51.076;7.950;2024-01-06T08:33:45;5.18;;;3.03;;
55031;SDS011;40928;51.076;7.950;2024-01-06T08:36:10;5.75;;;3.20;;
55031;SDS011;40928;51.076;7.950;2024-01-06T08:38:36;6.35;;;3.22;;
55031;SDS011;40928;51.076;7.950;2024-01-06T08:41:02;5.22;;;2.55;;
55031;SDS011;40928;51.076;7.950;2024-01-06T08:43:27;5.43;;;2.92;;
55031;SDS011;40928;51.076;7.950;2024-01-06T08:45:53;7.68;;;3.53;;
55031;SDS011;40928;51.076;7.950;2024-01-06T08:48:19;5.60;;;3.40;;
55031;SDS011;40928;51.076;7.950;2024-01-06T08:50:44;7.25;;;3.08;;
55031;SDS011;40928;51.076;7.950;2024-01-06T08:53:11;7.53;;;3.90;;
55031;SDS011;40928;51.076;7.950;2024-01-06T08:55:37;9.15;;;5.40;;
55031;SDS011;40928;51.076;7.950;2024-01-06T08:58:02;7.95;;;5.20;;
55031;SDS011;40928;51.076;7.950;2024-01-06T09:00:28;12.77;;;6.57;;
55031;SDS011;40928;51.076;7.950;2024-01-06T09:02:54;13.50;;;6.75;;
55031;SDS011;40928;51.076;7.950;2024-01-06T09:05:20;12.52;;;6.38;;
55031;SDS011;40928;51.076;7.950;2024-01-06T09:07:45;13.38;;;6.78;;
55031;SDS011;40928;51.076;7.950;2024-01-06T09:10:16;11.95;;;6.53;;
55031;SDS011;40928;51.076;7.950;2024-01-06T09:12:42;13.00;;;7.13;;
55031;SDS011;40928;51.076;7.950;2024-01-06T09:15:08;13.05;;;6.32;;
55031;SDS011;40928;51.076;7.950;2024-01-06T09:17:34;9.70;;;5.32;;
55031;SDS011;40928;51.076;7.950;2024-01-06T09:20:00;9.98;;;4.68;;
55031;SDS011;40928;51.076;7.950;2024-01-06T09:22:26;7.18;;;4.13;;
55031;SDS011;40928;51.076;7.950;2024-01-06T09:24:53;6.55;;;3.58;;
55031;SDS011;40928;51.076;7.950;2024-01-06T09:27:19;6.07;;;3.38;;
55031;SDS011;40928;51.076;7.950;2024-01-06T09:29:45;5.30;;;2.65;;
55031;SDS011;40928;51.076;7.950;2024-01-06T09:32:10;5.18;;;2.47;;
55031;SDS011;40928;51.076;7.950;2024-01-06T09:34:36;2.90;;;1.55;;
55031;SDS011;40928;51.076;7.950;2024-01-06T09:37:02;3.55;;;1.52;;
55031;SDS011;40928;51.076;7.950;2024-01-06T09:39:28;7.20;;;3.83;;
55031;SDS011;40928;51.076;7.950;2024-01-06T09:41:56;3.55;;;2.03;;
55031;SDS011;40928;51.076;7.950;2024-01-06T09:44:21;5.22;;;2.85;;
55031;SDS011;40928;51.076;7.950;2024-01-06T09:46:47;13.18;;;5.50;;
55031;SDS011;40928;51.076;7.950;2024-01-06T09:49:20;10.55;;;4.43;;
55031;SDS011;40928;51.076;7.950;2024-01-06T09:51:59;5.90;;;2.65;;
55031;SDS011;40928;51.076;7.950;2024-01-06T09:54:28;10.35;;;4.28;;
55031;SDS011;40928;51.076;7.950;2024-01-06T09:56:59;10.25;;;4.20;;
55031;SDS011;40928;51.076;7.950;2024-01-06T09:59:34;5.05;;;2.15;;
55031;SDS011;40928;51.076;7.950;2024-01-06T10:02:03;3.15;;;1.90;;
55031;SDS011;40928;51.076;7.950;2024-01-06T10:04:29;3.47;;;2.20;;
55031;SDS011;40928;51.076;7.950;2024-01-06T10:06:54;5.65;;;2.40;;
55031;SDS011;40928;51.076;7.950;2024-01-06T10:09:26;3.80;;;2.20;;
55031;SDS011;40928;51.076;7.950;2024-01-06T10:11:54;6.10;;;2.75;;
55031;SDS011;40928;51.076;7.950;2024-01-06T10:14:21;8.00;;;3.85;;
55031;SDS011;40928;51.076;7.950;2024-01-06T10:16:47;8.13;;;4.05;;
55031;SDS011;40928;51.076;7.950;2024-01-06T10:19:14;6.20;;;3.78;;
55031;SDS011;40928;51.076;7.950;2024-01-06T10:21:43;5.97;;;3.30;;
55031;SDS011;40928;51.076;7.950;2024-01-06T10:24:09;8.75;;;4.47;;
55031;SDS011;40928;51.076;7.950;2024-01-06T10:26:35;7.10;;;3.72;;
55031;SDS011;40928;51.076;7.950;2024-01-06T10:29:01;5.65;;;3.20;;
55031;SDS011;40928;51.076;7.950;2024-01-06T10:31:26;5.40;;;3.13;;
55031;SDS011;40928;51.076;7.950;2024-01-06T10:33:52;6.57;;;3.38;;
55031;SDS011;40928;51.076;7.950;2024-01-06T10:36:18;5.43;;;3.28;;
55031;SDS011;40928;51.076;7.950;2024-01-06T10:38:44;4.45;;;2.92;;
55031;SDS011;40928;51.076;7.950;2024-01-06T10:41:10;6.45;;;2.85;;
55031;SDS011;40928;51.076;7.950;2024-01-06T10:43:37;4.93;;;2.40;;
55031;SDS011;40928;51.076;7.950;2024-01-06T10:46:06;6.72;;;3.17;;
55031;SDS011;40928;51.076;7.950;2024-01-06T10:48:36;6.72;;;3.33;;
55031;SDS011;40928;51.076;7.950;2024-01-06T10:51:04;5.03;;;2.92;;
55031;SDS011;40928;51.076;7.950;2024-01-06T10:53:32;3.65;;;2.22;;
55031;SDS011;40928;51.076;7.950;2024-01-06T10:56:02;6.65;;;3.28;;
55031;SDS011;40928;51.076;7.950;2024-01-06T10:58:29;6.43;;;3.35;;
55031;SDS011;40928;51.076;7.950;2024-01-06T11:00:57;5.30;;;3.33;;
55031;SDS011;40928;51.076;7.950;2024-01-06T11:03:24;7.32;;;3.92;;
55031;SDS011;40928;51.076;7.950;2024-01-06T11:05:50;7.18;;;4.18;;
55031;SDS011;40928;51.076;7.950;2024-01-06T11:08:17;6.80;;;3.70;;
55031;SDS011;40928;51.076;7.950;2024-01-06T11:10:43;5.95;;;3.22;;
55031;SDS011;40928;51.076;7.950;2024-01-06T11:15:42;8.75;;;4.40;;
55031;SDS011;40928;51.076;7.950;2024-01-06T11:18:31;10.43;;;5.40;;
55031;SDS011;40928;51.076;7.950;2024-01-06T11:23:37;14.50;;;6.07;;
55031;SDS011;40928;51.076;7.950;2024-01-06T11:26:03;11.05;;;5.60;;
55031;SDS011;40928;51.076;7.950;2024-01-06T11:28:31;11.95;;;6.60;;
55031;SDS011;40928;51.076;7.950;2024-01-06T11:31:09;16.73;;;6.35;;
55031;SDS011;40928;51.076;7.950;2024-01-06T11:33:40;13.38;;;6.93;;
55031;SDS011;40928;51.076;7.950;2024-01-06T11:36:09;15.32;;;7.82;;
55031;SDS011;40928;51.076;7.950;2024-01-06T11:38:38;12.55;;;6.55;;
55031;SDS011;40928;51.076;7.950;2024-01-06T11:41:07;16.13;;;7.93;;
55031;SDS011;40928;51.076;7.950;2024-01-06T11:43:35;12.13;;;6.25;;
55031;SDS011;40928;51.076;7.950;2024-01-06T11:46:05;13.95;;;6.20;;
55031;SDS011;40928;51.076;7.950;2024-01-06T11:48:32;11.52;;;5.97;;
55031;SDS011;40928;51.076;7.950;2024-01-06T11:50:58;14.95;;;5.70;;
55031;SDS011;40928;51.076;7.950;2024-01-06T11:53:26;13.75;;;6.18;;
55031;SDS011;40928;51.076;7.950;2024-01-06T11:55:55;14.45;;;6.32;;
55031;SDS011;40928;51.076;7.950;2024-01-06T11:58:20;11.90;;;5.63;;
55031;SDS011;40928;51.076;7.950;2024-01-06T12:00:54;11.30;;;5.47;;
55031;SDS011;40928;51.076;7.950;2024-01-06T12:03:20;14.52;;;6.55;;
55031;SDS011;40928;51.076;7.950;2024-01-06T12:06:04;11.52;;;5.75;;
55031;SDS011;40928;51.076;7.950;2024-01-06T12:08:32;10.60;;;5.50;;
55031;SDS011;40928;51.076;7.950;2024-01-06T12:11:04;12.20;;;5.90;;
55031;SDS011;40928;51.076;7.950;2024-01-06T12:13:31;8.98;;;5.05;;
55031;SDS011;40928;51.076;7.950;2024-01-06T12:15:56;10.25;;;5.13;;
55031;SDS011;40928;51.076;7.950;2024-01-06T12:18:22;8.82;;;4.88;;
55031;SDS011;40928;51.076;7.950;2024-01-06T12:20:50;10.20;;;5.60;;
55031;SDS011;40928;51.076;7.950;2024-01-06T12:23:25;10.40;;;5.05;;
55031;SDS011;40928;51.076;7.950;2024-01-06T12:25:54;8.43;;;4.25;;
55031;SDS011;40928;51.076;7.950;2024-01-06T12:28:21;7.78;;;4.53;;
55031;SDS011;40928;51.076;7.950;2024-01-06T12:30:46;9.02;;;3.83;;
55031;SDS011;40928;51.076;7.950;2024-01-06T12:33:12;11.45;;;4.60;;
55031;SDS011;40928;51.076;7.950;2024-01-06T12:35:39;10.10;;;5.60;;
55031;SDS011;40928;51.076;7.950;2024-01-06T12:38:08;9.13;;;5.03;;
55031;SDS011;40928;51.076;7.950;2024-01-06T12:40:37;9.23;;;4.40;;
55031;SDS011;40928;51.076;7.950;2024-01-06T12:43:06;9.15;;;4.75;;
55031;SDS011;40928;51.076;7.950;2024-01-06T12:45:32;7.97;;;4.75;;
55031;SDS011;40928;51.076;7.950;2024-01-06T12:47:57;8.88;;;4.63;;
55031;SDS011;40928;51.076;7.950;2024-01-06T12:50:23;11.20;;;4.68;;
55031;SDS011;40928;51.076;7.950;2024-01-06T12:52:48;11.45;;;5.10;;
55031;SDS011;40928;51.076;7.950;2024-01-06T12:55:14;9.88;;;5.32;;
55031;SDS011;40928;51.076;7.950;2024-01-06T12:57:41;9.02;;;4.38;;
55031;SDS011;40928;51.076;7.950;2024-01-06T13:00:07;8.70;;;4.28;;
55031;SDS011;40928;51.076;7.950;2024-01-06T13:02:36;10.38;;;4.35;;
55031;SDS011;40928;51.076;7.950;2024-01-06T13:05:02;7.75;;;4.07;;
55031;SDS011;40928;51.076;7.950;2024-01-06T13:07:28;8.90;;;4.30;;
55031;SDS011;40928;51.076;7.950;2024-01-06T13:09:54;8.93;;;4.07;;
55031;SDS011;40928;51.076;7.950;2024-01-06T13:12:20;7.07;;;3.45;;
55031;SDS011;40928;51.076;7.950;2024-01-06T13:14:45;9.25;;;4.15;;
55031;SDS011;40928;51.076;7.950;2024-01-06T13:17:12;9.23;;;4.50;;
55031;SDS011;40928;51.076;7.950;2024-01-06T13:19:41;6.63;;;3.78;;
55031;SDS011;40928;51.076;7.950;2024-01-06T13:22:06;8.18;;;4.13;;
55031;SDS011;40928;51.076;7.950;2024-01-06T13:24:32;8.48;;;4.50;;
55031;SDS011;40928;51.076;7.950;2024-01-06T13:26:58;10.35;;;5.10;;
55031;SDS011;40928;51.076;7.950;2024-01-06T13:29:28;13.05;;;6.05;;
55031;SDS011;40928;51.076;7.950;2024-01-06T13:31:54;11.65;;;5.50;;
55031;SDS011;40928;51.076;7.950;2024-01-06T13:34:21;12.77;;;5.30;;
55031;SDS011;40928;51.076;7.950;2024-01-06T13:36:46;13.27;;;5.75;;
55031;SDS011;40928;51.076;7.950;2024-01-06T13:39:12;12.00;;;5.28;;
55031;SDS011;40928;51.076;7.950;2024-01-06T13:41:48;16.13;;;6.03;;
55031;SDS011;40928;51.076;7.950;2024-01-06T13:44:15;13.02;;;5.70;;
55031;SDS011;40928;51.076;7.950;2024-01-06T13:46:41;12.10;;;5.25;;
55031;SDS011;40928;51.076;7.950;2024-01-06T13:49:13;9.93;;;4.72;;
55031;SDS011;40928;51.076;7.950;2024-01-06T13:51:42;10.52;;;5.75;;
55031;SDS011;40928;51.076;7.950;2024-01-06T13:54:08;12.05;;;5.25;;
55031;SDS011;40928;51.076;7.950;2024-01-06T13:56:34;8.57;;;3.88;;
55031;SDS011;40928;51.076;7.950;2024-01-06T13:59:00;10.45;;;4.38;;
55031;SDS011;40928;51.076;7.950;2024-01-06T14:01:25;8.35;;;4.15;;
55031;SDS011;40928;51.076;7.950;2024-01-06T14:03:51;10.98;;;4.82;;
55031;SDS011;40928;51.076;7.950;2024-01-06T14:06:28;9.15;;;4.35;;
55031;SDS011;40928;51.076;7.950;2024-01-06T14:08:55;15.75;;;5.65;;
55031;SDS011;40928;51.076;7.950;2024-01-06T14:11:22;10.65;;;5.22;;
55031;SDS011;40928;51.076;7.950;2024-01-06T14:13:48;12.07;;;4.82;;
55031;SDS011;40928;51.076;7.950;2024-01-06T14:16:17;12.82;;;5.45;;
55031;SDS011;40928;51.076;7.950;2024-01-06T14:18:43;13.63;;;5.00;;
55031;SDS011;40928;51.076;7.950;2024-01-06T14:21:09;12.80;;;4.75;;
55031;SDS011;40928;51.076;7.950;2024-01-06T14:23:36;10.05;;;4.38;;
55031;SDS011;40928;51.076;7.950;2024-01-06T14:26:04;12.35;;;4.30;;
55031;SDS011;40928;51.076;7.950;2024-01-06T14:28:29;8.95;;;3.78;;
55031;SDS011;40928;51.076;7.950;2024-01-06T14:30:58;9.05;;;3.90;;
55031;SDS011;40928;51.076;7.950;2024-01-06T14:33:24;9.45;;;4.15;;
55031;SDS011;40928;51.076;7.950;2024-01-06T14:35:50;8.75;;;4.20;;
55031;SDS011;40928;51.076;7.950;2024-01-06T14:38:15;6.57;;;3.03;;
55031;SDS011;40928;51.076;7.950;2024-01-06T14:40:41;11.20;;;4.07;;
55031;SDS011;40928;51.076;7.950;2024-01-06T14:43:06;8.18;;;4.00;;
55031;SDS011;40928;51.076;7.950;2024-01-06T14:45:32;8.88;;;3.85;;
55031;SDS011;40928;51.076;7.950;2024-01-06T14:47:58;7.70;;;3.17;;